createdAt,value
2022-11-28T00:00:55.351Z,4.67
2022-11-28T00:03:21.763Z,4.74
2022-11-28T00:05:48.258Z,4.71
2022-11-28T00:08:14.634Z,4.72
2022-11-28T00:10:40.975Z,4.72
2022-11-28T00:13:07.317Z,4.70
2022-11-28T00:15:33.827Z,4.70
2022-11-28T00:18:01.177Z,4.73
2022-11-28T00:20:27.561Z,4.75
2022-11-28T00:22:54.371Z,4.77
2022-11-28T00:25:21.781Z,4.79
2022-11-28T00:27:48.330Z,4.82
2022-11-28T00:30:15.071Z,4.85
2022-11-28T00:32:41.436Z,4.85
2022-11-28T00:35:07.808Z,4.84
2022-11-28T00:37:34.199Z,4.83
2022-11-28T00:40:00.762Z,4.83
2022-11-28T00:42:27.621Z,4.83
2022-11-28T00:44:54.085Z,4.82
2022-11-28T00:47:20.431Z,4.79
2022-11-28T00:49:46.853Z,4.79
2022-11-28T00:52:15.467Z,4.80
2022-11-28T00:54:42.416Z,4.81
2022-11-28T00:57:08.830Z,4.81
2022-11-28T00:59:35.293Z,4.84
2022-11-28T01:02:01.700Z,4.87
2022-11-28T01:04:28.096Z,4.84
2022-11-28T01:06:54.481Z,4.79
2022-11-28T01:09:20.981Z,4.78
2022-11-28T01:11:47.354Z,4.68
2022-11-28T01:14:13.965Z,4.55
2022-11-28T01:16:40.736Z,4.54
2022-11-28T01:19:07.224Z,4.53
2022-11-28T01:21:33.575Z,4.54
2022-11-28T01:23:59.897Z,4.53
2022-11-28T01:26:26.239Z,4.49
2022-11-28T01:28:52.707Z,4.47
2022-11-28T01:31:19.107Z,4.44
2022-11-28T01:33:45.504Z,4.39
2022-11-28T01:36:11.994Z,4.35
2022-11-28T01:38:38.375Z,4.38
2022-11-28T01:41:04.864Z,4.37
2022-11-28T01:43:31.235Z,4.31
2022-11-28T01:45:57.613Z,4.23
2022-11-28T01:48:24.089Z,4.17
2022-11-28T01:50:50.416Z,4.14
2022-11-28T01:53:16.941Z,4.15
2022-11-28T01:55:45.744Z,4.18
2022-11-28T01:58:12.130Z,4.13
2022-11-28T02:00:38.607Z,4.10
2022-11-28T02:03:04.997Z,4.12
2022-11-28T02:05:31.374Z,4.13
2022-11-28T02:07:57.834Z,4.08
2022-11-28T02:10:24.340Z,4.01
2022-11-28T02:12:51.126Z,4.01
2022-11-28T02:15:17.581Z,4.03
2022-11-28T02:17:43.952Z,4.08
2022-11-28T02:20:10.342Z,4.13
2022-11-28T02:22:36.770Z,4.11
2022-11-28T02:25:03.107Z,4.13
2022-11-28T02:27:29.592Z,3.99
2022-11-28T02:29:55.947Z,4.02
2022-11-28T02:32:22.507Z,4.07
2022-11-28T02:34:49.167Z,4.08
2022-11-28T02:37:15.696Z,4.07
2022-11-28T02:39:42.180Z,3.95
2022-11-28T02:42:08.563Z,3.76
2022-11-28T02:44:35.016Z,3.81
2022-11-28T02:47:01.462Z,3.89
2022-11-28T02:49:27.893Z,3.89
2022-11-28T02:51:54.238Z,3.89
2022-11-28T02:54:20.637Z,3.92
2022-11-28T02:56:47.216Z,3.91
2022-11-28T02:59:13.968Z,3.86
2022-11-28T03:01:40.532Z,3.87
2022-11-28T03:04:07.018Z,3.91
2022-11-28T03:06:33.846Z,3.99
2022-11-28T03:09:00.236Z,4.02
2022-11-28T03:11:26.699Z,4.06
2022-11-28T03:13:53.054Z,4.07
2022-11-28T03:16:19.558Z,4.09
2022-11-28T03:18:45.988Z,4.10
2022-11-28T03:21:12.540Z,4.13
2022-11-28T03:23:40.980Z,4.15
2022-11-28T03:26:07.530Z,4.17
2022-11-28T03:28:33.872Z,4.19
2022-11-28T03:31:00.456Z,4.19
2022-11-28T03:33:27.225Z,4.12
2022-11-28T03:35:55.709Z,4.00
2022-11-28T03:38:22.490Z,4.02
2022-11-28T03:40:48.872Z,4.05
2022-11-28T03:43:15.340Z,4.06
2022-11-28T03:45:42.178Z,4.06
2022-11-28T03:48:08.869Z,4.08
2022-11-28T03:50:35.600Z,4.11
2022-11-28T03:53:02.346Z,4.06
2022-11-28T03:55:28.771Z,4.01
2022-11-28T03:57:55.139Z,4.01
2022-11-28T04:00:21.561Z,3.94
2022-11-28T04:02:48.093Z,3.92
2022-11-28T04:05:14.563Z,3.97
2022-11-28T04:07:41.019Z,3.99
2022-11-28T04:10:07.578Z,3.95
2022-11-28T04:12:33.973Z,3.95
2022-11-28T04:15:02.740Z,3.99
2022-11-28T04:17:29.194Z,3.98
2022-11-28T04:19:55.653Z,4.02
2022-11-28T04:22:22.291Z,4.02
2022-11-28T04:24:48.731Z,3.98
2022-11-28T04:27:15.085Z,4.00
2022-11-28T04:29:41.438Z,4.02
2022-11-28T04:32:07.848Z,4.02
2022-11-28T04:34:34.193Z,4.04
2022-11-28T04:37:02.463Z,4.02
2022-11-28T04:39:31.940Z,4.04
2022-11-28T04:41:58.321Z,4.04
2022-11-28T04:44:24.658Z,4.03
2022-11-28T04:46:51.429Z,4.02
2022-11-28T04:49:18.020Z,3.99
2022-11-28T04:51:44.356Z,4.01
2022-11-28T04:54:11.074Z,3.99
2022-11-28T04:56:39.974Z,3.93
2022-11-28T04:59:08.956Z,3.90
2022-11-28T05:01:35.813Z,3.95
2022-11-28T05:04:02.366Z,3.96
2022-11-28T05:06:28.818Z,3.95
2022-11-28T05:08:55.199Z,4.00
2022-11-28T05:11:21.575Z,4.06
2022-11-28T05:13:47.942Z,4.07
2022-11-28T05:16:14.318Z,4.10
2022-11-28T05:18:40.670Z,4.12
2022-11-28T05:21:07.190Z,4.14
2022-11-28T05:23:33.743Z,4.16
2022-11-28T05:26:00.203Z,4.15
2022-11-28T05:28:26.649Z,4.19
2022-11-28T05:30:53.025Z,4.22
2022-11-28T05:33:20.169Z,4.27
2022-11-28T05:35:46.656Z,4.32
2022-11-28T05:38:13.754Z,4.36
2022-11-28T05:40:40.320Z,4.40
2022-11-28T05:43:06.826Z,4.44
2022-11-28T05:45:33.292Z,4.45
2022-11-28T05:47:59.711Z,4.50
2022-11-28T05:50:26.080Z,4.43
2022-11-28T05:52:53.183Z,4.37
2022-11-28T05:55:20.776Z,4.37
2022-11-28T05:57:47.151Z,4.37
2022-11-28T06:00:13.526Z,4.39
2022-11-28T06:02:39.919Z,4.41
2022-11-28T06:05:27.380Z,4.43
2022-11-28T06:07:52.737Z,4.43
2022-11-28T06:10:21.225Z,4.39
2022-11-28T06:12:47.606Z,4.40
2022-11-28T06:15:13.994Z,4.44
2022-11-28T06:17:40.383Z,4.41
2022-11-28T06:20:06.751Z,4.43
2022-11-28T06:22:33.216Z,4.44
2022-11-28T06:24:59.717Z,4.45
2022-11-28T06:27:26.355Z,4.49
2022-11-28T06:29:52.742Z,4.54
2022-11-28T06:32:22.170Z,4.58
2022-11-28T06:34:49.057Z,4.61
2022-11-28T06:37:15.911Z,4.62
2022-11-28T06:39:42.950Z,4.59
2022-11-28T06:42:09.513Z,4.60
2022-11-28T06:44:35.956Z,4.57
2022-11-28T06:47:02.526Z,4.54
2022-11-28T06:49:29.680Z,4.51
2022-11-28T06:51:56.230Z,4.54
2022-11-28T06:54:22.938Z,4.52
2022-11-28T06:56:50.530Z,4.51
2022-11-28T06:59:17.105Z,4.57
2022-11-28T07:01:43.635Z,4.64
2022-11-28T07:04:10.062Z,4.65
2022-11-28T07:06:36.770Z,4.66
2022-11-28T07:09:04.600Z,4.69
2022-11-28T07:11:30.986Z,4.74
2022-11-28T07:13:57.322Z,4.72
2022-11-28T07:16:23.800Z,4.75
2022-11-28T07:18:51.395Z,4.76
2022-11-28T07:21:17.807Z,4.79
2022-11-28T07:23:44.265Z,4.80
2022-11-28T07:26:10.795Z,4.86
2022-11-28T07:28:37.462Z,4.88
2022-11-28T07:31:04.106Z,4.95
2022-11-28T07:33:30.455Z,5.00
2022-11-28T07:35:57.154Z,5.00
2022-11-28T07:38:23.911Z,4.95
2022-11-28T07:40:50.372Z,4.97
2022-11-28T07:43:17.071Z,5.03
2022-11-28T07:46:00.144Z,5.06
2022-11-28T07:48:27.703Z,5.10
2022-11-28T07:50:54.289Z,5.18
2022-11-28T07:53:20.678Z,5.23
2022-11-28T07:55:47.215Z,5.27
2022-11-28T07:58:14.392Z,5.34
2022-11-28T08:00:41.867Z,5.40
2022-11-28T08:03:08.476Z,5.48
2022-11-28T08:05:34.880Z,5.56
2022-11-28T08:08:01.402Z,5.64
2022-11-28T08:10:27.811Z,5.60
2022-11-28T08:12:54.173Z,5.56
2022-11-28T08:15:20.684Z,5.44
2022-11-28T08:17:47.528Z,5.52
2022-11-28T08:20:13.912Z,5.68
2022-11-28T08:22:40.377Z,5.79
2022-11-28T08:25:07.800Z,5.86
2022-11-28T08:27:35.712Z,5.98
2022-11-28T08:30:02.101Z,6.08
2022-11-28T08:32:28.450Z,6.11
2022-11-28T08:34:54.799Z,6.16
2022-11-28T08:37:21.195Z,6.25
2022-11-28T08:39:47.619Z,6.36
2022-11-28T08:42:13.995Z,6.47
2022-11-28T08:44:40.381Z,6.54
2022-11-28T08:47:06.853Z,6.60
2022-11-28T08:49:33.339Z,6.68
2022-11-28T08:52:00.016Z,6.75
2022-11-28T08:54:26.539Z,6.84
2022-11-28T08:56:53.020Z,6.88
2022-11-28T08:59:19.588Z,6.98
2022-11-28T09:01:46.080Z,7.06
2022-11-28T09:04:12.790Z,7.13
2022-11-28T09:06:42.086Z,7.22
2022-11-28T09:09:08.755Z,7.30
2022-11-28T09:11:36.154Z,7.30
2022-11-28T09:14:02.857Z,7.19
2022-11-28T09:16:29.673Z,7.25
2022-11-28T09:18:56.600Z,7.33
2022-11-28T09:21:23.634Z,7.40
2022-11-28T09:23:50.015Z,7.48
2022-11-28T09:26:17.483Z,7.55
2022-11-28T09:28:44.135Z,7.60
2022-11-28T09:31:10.557Z,7.66
2022-11-28T09:33:37.093Z,7.70
2022-11-28T09:36:03.457Z,7.51
2022-11-28T09:38:29.803Z,7.59
2022-11-28T09:40:56.203Z,7.75
2022-11-28T09:43:30.381Z,7.86
2022-11-28T09:45:56.836Z,7.93
2022-11-28T09:48:23.340Z,8.00
2022-11-28T09:50:50.260Z,8.04
2022-11-28T09:53:17.331Z,8.17
2022-11-28T09:55:44.175Z,8.27
2022-11-28T09:58:10.860Z,8.33
2022-11-28T10:00:37.306Z,8.40
2022-11-28T10:03:03.885Z,8.47
2022-11-28T10:05:31.262Z,8.54
2022-11-28T10:07:57.667Z,8.61
2022-11-28T10:10:24.163Z,8.69
2022-11-28T10:12:50.804Z,8.74
2022-11-28T10:15:17.175Z,8.78
2022-11-28T10:17:43.713Z,8.86
2022-11-28T10:20:10.420Z,8.87
2022-11-28T10:22:36.942Z,8.90
2022-11-28T10:25:03.320Z,8.98
2022-11-28T10:27:30.695Z,9.03
2022-11-28T10:29:57.079Z,8.99
2022-11-28T10:32:25.002Z,8.96
2022-11-28T10:34:54.436Z,8.84
2022-11-28T10:37:21.159Z,8.72
2022-11-28T10:39:47.761Z,8.88
2022-11-28T10:42:14.290Z,9.00
2022-11-28T10:44:40.863Z,9.09
2022-11-28T10:47:08.255Z,9.15
2022-11-28T10:49:34.935Z,9.13
2022-11-28T10:52:01.497Z,9.24
2022-11-28T10:54:28.058Z,9.29
2022-11-28T10:56:54.390Z,9.36
2022-11-28T10:59:20.854Z,9.29
2022-11-28T11:01:50.131Z,9.19
2022-11-28T11:04:17.026Z,9.21
2022-11-28T11:07:07.131Z,9.34
2022-11-28T11:09:33.133Z,9.51
2022-11-28T11:11:59.880Z,9.59
2022-11-28T11:14:26.496Z,9.65
2022-11-28T11:16:52.955Z,9.74
2022-11-28T11:19:19.451Z,9.73
2022-11-28T11:21:46.672Z,9.70
2022-11-28T11:24:13.074Z,9.66
2022-11-28T11:26:40.062Z,9.52
2022-11-28T11:29:06.801Z,9.53
2022-11-28T11:31:33.606Z,9.57
2022-11-28T11:34:00.094Z,9.62
2022-11-28T11:36:26.733Z,9.73
2022-11-28T11:38:53.307Z,9.76
2022-11-28T11:41:19.708Z,9.67
2022-11-28T11:43:46.171Z,9.65
2022-11-28T11:46:12.590Z,9.43
2022-11-28T11:48:39.345Z,9.28
2022-11-28T11:51:05.792Z,9.33
2022-11-28T11:53:32.191Z,9.42
2022-11-28T11:56:01.473Z,9.46
2022-11-28T11:58:28.283Z,9.45
2022-11-28T12:00:54.655Z,9.39
2022-11-28T12:03:21.300Z,9.45
2022-11-28T12:06:12.782Z,9.56
2022-11-28T12:08:35.615Z,9.52
2022-11-28T12:11:02.072Z,9.52
2022-11-28T12:13:29.472Z,9.62
2022-11-28T12:15:56.087Z,9.66
2022-11-28T12:18:22.722Z,9.64
2022-11-28T12:20:49.097Z,9.57
2022-11-28T12:23:17.516Z,9.59
2022-11-28T12:25:44.223Z,9.69
2022-11-28T12:28:10.546Z,9.74
2022-11-28T12:30:39.116Z,9.74
2022-11-28T12:33:08.461Z,9.74
2022-11-28T12:35:34.855Z,9.92
2022-11-28T12:38:16.591Z,9.91
2022-11-28T12:40:43.032Z,9.92
2022-11-28T12:43:09.653Z,9.86
2022-11-28T12:45:36.135Z,9.85
2022-11-28T12:48:02.583Z,9.94
2022-11-28T12:50:29.167Z,9.96
2022-11-28T12:52:55.512Z,10.10
2022-11-28T12:55:24.703Z,10.14
2022-11-28T12:57:51.303Z,10.10
2022-11-28T13:00:17.636Z,10.02
2022-11-28T13:02:44.128Z,9.88
2022-11-28T13:05:10.557Z,9.70
2022-11-28T13:07:36.942Z,9.65
2022-11-28T13:10:03.344Z,9.60
2022-11-28T13:12:29.675Z,9.63
2022-11-28T13:14:56.030Z,9.76
2022-11-28T13:17:22.612Z,9.75
2022-11-28T13:19:49.217Z,9.92
2022-11-28T13:22:15.765Z,9.97
2022-11-28T13:24:42.243Z,9.84
2022-11-28T13:27:08.622Z,9.91
2022-11-28T13:29:34.973Z,10.01
2022-11-28T13:32:02.365Z,9.99
2022-11-28T13:34:29.051Z,9.99
2022-11-28T13:39:44.019Z,10.10
2022-11-28T13:44:58.718Z,9.91
2022-11-28T13:47:25.053Z,9.93
2022-11-28T13:49:51.622Z,9.85
2022-11-28T13:52:19.025Z,9.80
2022-11-28T13:54:45.574Z,9.80
2022-11-28T13:57:12.156Z,9.79
2022-11-28T13:59:38.523Z,9.80
2022-11-28T14:02:05.278Z,9.77
2022-11-28T14:04:34.404Z,9.70
2022-11-28T14:07:00.826Z,9.65
2022-11-28T14:09:27.312Z,9.62
2022-11-28T14:11:53.743Z,9.67
2022-11-28T14:14:20.156Z,9.72
2022-11-28T14:16:51.587Z,9.65
2022-11-28T14:19:18.708Z,9.59
2022-11-28T14:21:45.151Z,9.50
2022-11-28T14:24:11.595Z,9.54
2022-11-28T14:26:38.278Z,9.62
2022-11-28T14:29:04.723Z,9.57
2022-11-28T14:31:31.220Z,9.45
2022-11-28T14:33:57.671Z,9.50
2022-11-28T14:36:24.045Z,9.42
2022-11-28T14:38:50.390Z,9.48
2022-11-28T14:41:16.722Z,9.38
2022-11-28T14:43:44.443Z,9.36
2022-11-28T14:46:10.816Z,9.37
2022-11-28T14:48:37.322Z,9.45
2022-11-28T14:51:03.713Z,9.51
2022-11-28T14:53:30.086Z,9.45
2022-11-28T14:55:56.650Z,9.50
2022-11-28T14:58:25.524Z,9.55
2022-11-28T15:00:52.051Z,9.55
2022-11-28T15:03:18.447Z,9.48
2022-11-28T15:05:44.905Z,9.50
2022-11-28T15:08:12.549Z,9.32
2022-11-28T15:10:39.128Z,9.23
2022-11-28T15:13:05.446Z,9.33
2022-11-28T15:15:31.924Z,9.40
2022-11-28T15:17:59.343Z,9.34
2022-11-28T15:20:25.695Z,9.31
2022-11-28T15:22:52.121Z,9.38
2022-11-28T15:25:18.500Z,9.36
2022-11-28T15:27:44.946Z,9.29
2022-11-28T15:30:11.396Z,9.07
2022-11-28T15:32:37.727Z,9.08
2022-11-28T15:35:07.918Z,9.01
2022-11-28T15:37:38.791Z,9.03
2022-11-28T15:40:07.911Z,9.12
2022-11-28T15:42:34.491Z,9.10
2022-11-28T15:45:00.919Z,9.09
2022-11-28T15:47:27.300Z,9.08
2022-11-28T15:49:54.092Z,9.05
2022-11-28T15:52:20.476Z,9.12
2022-11-28T15:54:47.323Z,8.96
2022-11-28T15:57:14.014Z,9.09
2022-11-28T15:59:40.387Z,9.06
2022-11-28T16:02:06.756Z,9.05
2022-11-28T16:04:33.131Z,9.08
2022-11-28T16:06:59.462Z,9.05
2022-11-28T16:09:25.896Z,9.08
2022-11-28T16:11:52.484Z,9.11
2022-11-28T16:14:18.926Z,9.12
2022-11-28T16:16:45.338Z,9.05
2022-11-28T16:19:11.766Z,8.93
2022-11-28T16:21:38.155Z,8.84
2022-11-28T16:24:05.334Z,8.89
2022-11-28T16:26:31.921Z,8.94
2022-11-28T16:28:58.303Z,8.99
2022-11-28T16:31:24.675Z,9.03
2022-11-28T16:33:52.301Z,9.07
2022-11-28T16:36:18.676Z,9.03
2022-11-28T16:38:45.073Z,9.02
2022-11-28T16:41:11.439Z,9.03
2022-11-28T16:43:38.034Z,9.03
2022-11-28T16:46:04.442Z,9.01
2022-11-28T16:48:30.858Z,9.02
2022-11-28T16:50:57.302Z,8.94
2022-11-28T16:53:23.888Z,8.80
2022-11-28T16:55:50.464Z,8.80
2022-11-28T16:58:16.902Z,8.76
2022-11-28T17:00:43.348Z,8.66
2022-11-28T17:03:12.922Z,8.55
2022-11-28T17:05:39.405Z,8.61
2022-11-28T17:08:05.856Z,8.55
2022-11-28T17:10:32.240Z,8.52
2022-11-28T17:12:58.666Z,8.37
2022-11-28T17:15:25.068Z,8.36
2022-11-28T17:17:53.755Z,8.17
2022-11-28T17:20:22.420Z,8.11
2022-11-28T17:22:51.405Z,8.18
2022-11-28T17:25:18.407Z,8.30
2022-11-28T17:27:44.933Z,8.25
2022-11-28T17:30:11.317Z,8.28
2022-11-28T17:32:37.759Z,8.20
2022-11-28T17:35:04.654Z,8.12
2022-11-28T17:37:31.189Z,8.16
2022-11-28T17:39:57.585Z,8.16
2022-11-28T17:42:25.427Z,8.25
2022-11-28T17:44:51.997Z,8.33
2022-11-28T17:47:18.618Z,8.33
2022-11-28T17:49:46.592Z,8.40
2022-11-28T17:52:13.351Z,8.45
2022-11-28T17:54:40.735Z,8.41
2022-11-28T17:57:07.324Z,8.41
2022-11-28T17:59:35.928Z,8.46
2022-11-28T18:02:04.725Z,8.49
2022-11-28T18:04:32.152Z,8.50
2022-11-28T18:06:58.841Z,8.53
2022-11-28T18:09:25.235Z,8.53
2022-11-28T18:11:53.161Z,8.51
2022-11-28T18:14:20.030Z,8.51
2022-11-28T18:16:46.692Z,8.50
2022-11-28T18:19:13.098Z,8.46
2022-11-28T18:21:39.551Z,8.46
2022-11-28T18:24:05.923Z,8.44
2022-11-28T18:26:33.308Z,8.41
2022-11-28T18:28:59.687Z,8.28
2022-11-28T18:31:28.660Z,8.23
2022-11-28T18:34:00.195Z,8.24
2022-11-28T18:36:26.891Z,8.22
2022-11-28T18:38:53.386Z,8.13
2022-11-28T18:41:19.806Z,8.13
2022-11-28T18:43:46.220Z,8.13
2022-11-28T18:46:12.622Z,8.12
2022-11-28T18:48:39.035Z,8.06
2022-11-28T18:51:05.376Z,7.99
2022-11-28T18:53:31.926Z,7.90
2022-11-28T18:55:58.308Z,7.79
2022-11-28T18:58:24.790Z,7.85
2022-11-28T19:00:51.188Z,7.69
2022-11-28T19:03:17.677Z,7.76
2022-11-28T19:05:46.345Z,7.74
2022-11-28T19:08:13.160Z,7.80
2022-11-28T19:10:39.571Z,7.73
2022-11-28T19:13:06.942Z,7.83
2022-11-28T19:15:33.372Z,7.79
2022-11-28T19:17:59.745Z,7.77
2022-11-28T19:20:26.121Z,7.72
2022-11-28T19:22:52.497Z,7.78
2022-11-28T19:25:18.853Z,7.81
2022-11-28T19:27:45.225Z,7.81
2022-11-28T19:30:11.772Z,7.86
2022-11-28T19:32:38.115Z,7.86
2022-11-28T19:35:04.583Z,7.86
2022-11-28T19:37:30.966Z,7.92
2022-11-28T19:40:02.300Z,7.90
2022-11-28T19:42:29.453Z,7.88
2022-11-28T19:44:55.902Z,7.76
2022-11-28T19:47:22.234Z,7.71
2022-11-28T19:49:48.548Z,7.77
2022-11-28T19:52:14.959Z,7.77
2022-11-28T19:54:41.782Z,7.75
2022-11-28T19:57:08.351Z,7.73
2022-11-28T19:59:34.951Z,7.63
2022-11-28T20:02:01.546Z,7.60
2022-11-28T20:04:28.114Z,7.60
2022-11-28T20:06:54.452Z,7.56
2022-11-28T20:09:21.858Z,7.59
2022-11-28T20:11:48.416Z,7.61
2022-11-28T20:14:14.969Z,7.68
2022-11-28T20:16:46.771Z,7.61
2022-11-28T20:19:13.219Z,7.69
2022-11-28T20:21:39.592Z,7.74
2022-11-28T20:24:06.966Z,7.74
2022-11-28T20:26:33.324Z,7.73
2022-11-28T20:28:59.662Z,7.68
2022-11-28T20:31:26.544Z,7.71
2022-11-28T20:33:53.025Z,7.67
2022-11-28T20:36:19.554Z,7.71
2022-11-28T20:38:46.214Z,7.69
2022-11-28T20:41:12.595Z,7.64
2022-11-28T20:43:39.004Z,7.67
2022-11-28T20:46:05.476Z,7.59
2022-11-28T20:48:31.904Z,7.55
2022-11-28T20:50:58.259Z,7.39
2022-11-28T20:53:26.940Z,7.24
2022-11-28T20:55:53.523Z,7.29
2022-11-28T20:58:20.111Z,7.31
2022-11-28T21:00:46.566Z,7.30
2022-11-28T21:03:13.068Z,7.27
2022-11-28T21:05:39.934Z,7.21
2022-11-28T21:08:06.401Z,7.26
2022-11-28T21:10:33.042Z,7.26
2022-11-28T21:12:59.407Z,7.28
2022-11-28T21:15:25.786Z,7.23
2022-11-28T21:17:52.163Z,7.23
2022-11-28T21:20:18.550Z,7.18
2022-11-28T21:22:45.711Z,7.17
2022-11-28T21:25:12.102Z,7.15
2022-11-28T21:27:38.452Z,7.17
2022-11-28T21:30:04.806Z,7.16
2022-11-28T21:32:31.377Z,7.15
2022-11-28T21:35:03.913Z,7.12
2022-11-28T21:37:30.893Z,7.14
2022-11-28T21:39:57.362Z,7.11
2022-11-28T21:42:23.691Z,7.16
2022-11-28T21:44:50.037Z,7.16
2022-11-28T21:47:16.401Z,7.14
2022-11-28T21:49:43.127Z,7.19
2022-11-28T21:52:09.738Z,7.28
2022-11-28T21:54:36.132Z,7.36
2022-11-28T21:57:04.571Z,7.42
2022-11-28T21:59:30.895Z,7.43
2022-11-28T22:01:57.308Z,7.46
2022-11-28T22:04:23.709Z,7.47
2022-11-28T22:06:50.082Z,7.49
2022-11-28T22:09:16.564Z,7.51
2022-11-28T22:11:43.033Z,7.54
2022-11-28T22:14:09.389Z,7.56
2022-11-28T22:16:35.821Z,7.53
2022-11-28T22:19:02.266Z,7.51
2022-11-28T22:21:52.421Z,7.51
2022-11-28T22:24:14.920Z,7.51
2022-11-28T22:26:41.313Z,7.52
2022-11-28T22:29:07.718Z,7.50
2022-11-28T22:31:34.171Z,7.50
2022-11-28T22:34:00.520Z,7.50
2022-11-28T22:36:26.911Z,7.48
2022-11-28T22:38:53.819Z,7.46
2022-11-28T22:41:27.863Z,7.45
2022-11-28T22:43:55.419Z,7.47
2022-11-28T22:46:21.787Z,7.43
2022-11-28T22:48:48.206Z,7.42
2022-11-28T22:51:14.765Z,7.42
2022-11-28T22:53:41.381Z,7.42
2022-11-28T22:56:07.922Z,7.43
2022-11-28T22:58:39.333Z,7.41
2022-11-28T23:01:08.841Z,7.40
2022-11-28T23:03:35.458Z,7.43
2022-11-28T23:06:02.038Z,7.41
2022-11-28T23:08:28.482Z,7.44
2022-11-28T23:10:54.890Z,7.30
2022-11-28T23:13:21.229Z,7.25
2022-11-28T23:15:52.666Z,7.18
2022-11-28T23:18:19.276Z,7.22
2022-11-28T23:20:45.650Z,7.24
2022-11-28T23:23:12.034Z,7.25
2022-11-28T23:25:38.379Z,7.25
2022-11-28T23:28:04.714Z,7.22
2022-11-28T23:30:31.439Z,7.15
2022-11-28T23:32:57.811Z,7.17
2022-11-28T23:35:24.432Z,7.13
2022-11-28T23:37:50.867Z,7.15
2022-11-28T23:40:17.526Z,7.15
2022-11-28T23:42:43.893Z,7.09
2022-11-28T23:45:10.339Z,7.07
2022-11-28T23:47:36.712Z,7.10
2022-11-28T23:50:03.054Z,7.10
2022-11-28T23:52:29.421Z,7.13
2022-11-28T23:54:55.799Z,7.16
2022-11-28T23:57:22.132Z,7.19
2022-11-28T23:59:48.578Z,7.21
